createdAt,value
2022-12-27T00:01:46.408Z,4.47
2022-12-27T00:04:14.245Z,4.28
2022-12-27T00:06:42.156Z,4.50
2022-12-27T00:09:10.518Z,3.55
2022-12-27T00:11:39.843Z,4.50
2022-12-27T00:14:08.038Z,7.18
2022-12-27T00:16:36.050Z,6.93
2022-12-27T00:19:04.269Z,7.85
2022-12-27T00:21:31.990Z,7.57
2022-12-27T00:24:01.271Z,6.97
2022-12-27T00:26:31.048Z,5.75
2022-12-27T00:29:00.838Z,6.18
2022-12-27T00:31:31.015Z,6.10
2022-12-27T00:34:02.103Z,6.65
2022-12-27T00:36:31.466Z,6.28
2022-12-27T00:39:00.590Z,5.90
2022-12-27T00:41:28.939Z,5.63
2022-12-27T00:43:56.834Z,5.85
2022-12-27T00:46:26.276Z,6.03
2022-12-27T00:48:55.672Z,6.10
2022-12-27T00:51:25.501Z,6.40
2022-12-27T00:53:54.441Z,6.15
2022-12-27T00:56:25.315Z,6.15
2022-12-27T00:58:54.713Z,6.32
2022-12-27T01:01:27.600Z,5.80
2022-12-27T01:03:57.221Z,5.65
2022-12-27T01:06:29.259Z,6.32
2022-12-27T01:08:57.858Z,6.20
2022-12-27T01:11:28.451Z,5.75
2022-12-27T01:13:56.992Z,6.10
2022-12-27T01:16:27.524Z,6.30
2022-12-27T01:18:55.941Z,6.50
2022-12-27T01:21:25.481Z,6.88
2022-12-27T01:23:53.546Z,7.47
2022-12-27T01:26:22.961Z,6.50
2022-12-27T01:28:51.773Z,7.00
2022-12-27T01:31:21.713Z,6.70
2022-12-27T01:33:55.811Z,7.25
2022-12-27T01:36:25.813Z,7.35
2022-12-27T01:38:54.091Z,6.15
2022-12-27T01:41:42.128Z,6.55
2022-12-27T01:44:50.212Z,6.22
2022-12-27T01:47:31.226Z,6.68
2022-12-27T01:50:07.500Z,6.55
2022-12-27T01:55:11.554Z,5.72
2022-12-27T01:57:40.727Z,6.40
2022-12-27T02:00:11.101Z,6.25
2022-12-27T02:02:40.567Z,6.07
2022-12-27T02:05:13.026Z,6.38
2022-12-27T02:07:48.795Z,6.18
2022-12-27T02:10:17.373Z,5.23
2022-12-27T02:12:45.313Z,6.03
2022-12-27T02:15:13.783Z,6.25
2022-12-27T02:17:41.705Z,5.22
2022-12-27T02:20:14.995Z,5.38
2022-12-27T02:23:36.104Z,6.38
2022-12-27T02:26:40.481Z,6.30
2022-12-27T02:29:28.520Z,6.93
2022-12-27T02:32:02.253Z,6.28
2022-12-27T02:34:42.726Z,6.50
2022-12-27T02:37:14.143Z,6.25
2022-12-27T02:39:46.051Z,6.05
2022-12-27T02:42:34.648Z,5.88
2022-12-27T02:45:28.412Z,6.00
2022-12-27T02:48:14.883Z,5.72
2022-12-27T02:51:16.876Z,5.82
2022-12-27T02:53:54.981Z,5.40
2022-12-27T02:56:49.038Z,6.00
2022-12-27T02:59:30.490Z,5.28
2022-12-27T03:02:30.598Z,5.45
2022-12-27T03:05:12.567Z,4.53
2022-12-27T03:07:49.877Z,4.80
2022-12-27T03:10:47.872Z,4.32
2022-12-27T03:13:42.270Z,4.22
2022-12-27T03:16:27.662Z,4.50
2022-12-27T03:19:09.653Z,4.05
2022-12-27T03:22:00.159Z,4.65
2022-12-27T03:24:50.245Z,4.38
2022-12-27T03:27:21.942Z,3.95
2022-12-27T03:30:12.626Z,4.57
2022-12-27T03:33:04.846Z,4.00
2022-12-27T03:35:39.588Z,4.50
2022-12-27T03:38:12.959Z,3.97
2022-12-27T03:41:07.496Z,4.20
2022-12-27T03:43:37.574Z,4.43
2022-12-27T03:46:35.789Z,4.85
2022-12-27T03:49:16.412Z,4.03
2022-12-27T03:51:49.972Z,3.80
2022-12-27T03:54:26.791Z,4.20
2022-12-27T03:56:57.179Z,4.13
2022-12-27T03:59:27.301Z,4.25
2022-12-27T04:01:56.226Z,4.00
2022-12-27T04:04:24.690Z,4.47
2022-12-27T04:06:54.590Z,4.60
2022-12-27T04:09:41.764Z,4.45
2022-12-27T04:15:16.192Z,4.35
2022-12-27T04:18:05.668Z,4.40
2022-12-27T04:20:53.264Z,3.95
2022-12-27T04:23:41.949Z,4.13
2022-12-27T04:26:28.885Z,4.28
2022-12-27T04:29:16.117Z,4.07
2022-12-27T04:32:02.696Z,4.00
2022-12-27T04:34:46.077Z,4.20
2022-12-27T04:37:17.471Z,4.22
2022-12-27T04:40:06.889Z,4.03
2022-12-27T04:42:53.876Z,3.70
2022-12-27T04:45:41.310Z,3.55
2022-12-27T04:48:32.160Z,3.72
2022-12-27T04:51:19.405Z,4.18
2022-12-27T04:54:06.341Z,4.00
2022-12-27T04:56:36.366Z,4.15
2022-12-27T04:59:23.403Z,4.07
2022-12-27T05:02:04.197Z,4.30
2022-12-27T05:04:36.158Z,3.38
2022-12-27T05:07:26.188Z,3.88
2022-12-27T05:10:13.084Z,4.50
2022-12-27T05:13:01.658Z,4.28
2022-12-27T05:15:30.082Z,4.38
2022-12-27T05:17:58.567Z,4.75
2022-12-27T05:20:27.087Z,4.53
2022-12-27T05:23:13.873Z,4.53
2022-12-27T05:25:42.840Z,4.45
2022-12-27T05:28:12.954Z,4.10
2022-12-27T05:30:43.909Z,5.00
2022-12-27T05:33:12.782Z,4.63
2022-12-27T05:35:41.121Z,5.10
2022-12-27T05:38:09.744Z,5.13
2022-12-27T05:40:38.006Z,4.93
2022-12-27T05:43:06.413Z,4.53
2022-12-27T05:45:36.247Z,4.97
2022-12-27T05:48:05.022Z,4.82
2022-12-27T05:50:33.255Z,4.80
2022-12-27T05:53:14.420Z,5.55
2022-12-27T05:55:42.869Z,6.43
2022-12-27T05:58:11.239Z,6.20
2022-12-27T06:00:41.217Z,5.88
2022-12-27T06:03:09.596Z,5.25
2022-12-27T06:05:38.048Z,4.80
2022-12-27T06:08:06.929Z,4.93
2022-12-27T06:10:35.463Z,4.80
2022-12-27T06:13:04.590Z,5.63
2022-12-27T06:15:33.218Z,5.82
2022-12-27T06:18:03.855Z,6.10
2022-12-27T06:20:32.535Z,5.50
2022-12-27T06:23:01.075Z,7.03
2022-12-27T06:25:29.547Z,10.18
2022-12-27T06:27:57.868Z,7.35
2022-12-27T06:30:28.436Z,8.10
2022-12-27T06:32:59.968Z,6.82
2022-12-27T06:35:29.987Z,6.47
2022-12-27T06:37:58.275Z,6.57
2022-12-27T06:40:26.620Z,5.80
2022-12-27T06:42:55.130Z,5.65
2022-12-27T06:45:23.267Z,6.03
2022-12-27T06:47:51.721Z,5.32
2022-12-27T06:50:20.090Z,5.22
2022-12-27T06:52:50.049Z,5.20
2022-12-27T06:55:18.657Z,5.25
2022-12-27T06:57:47.090Z,4.45
2022-12-27T07:00:16.827Z,4.40
2022-12-27T07:02:45.527Z,5.25
2022-12-27T07:05:14.730Z,4.47
2022-12-27T07:07:43.166Z,4.35
2022-12-27T07:10:12.998Z,4.43
2022-12-27T07:12:41.428Z,4.38
2022-12-27T07:15:10.933Z,3.38
2022-12-27T07:17:39.653Z,3.72
2022-12-27T07:20:08.925Z,4.28
2022-12-27T07:22:37.031Z,3.70
2022-12-27T07:25:05.805Z,5.03
2022-12-27T07:27:36.130Z,4.70
2022-12-27T07:30:05.411Z,4.55
2022-12-27T07:32:33.801Z,4.15
2022-12-27T07:35:02.207Z,4.80
2022-12-27T07:37:30.666Z,4.68
2022-12-27T07:39:59.147Z,4.50
2022-12-27T07:42:28.749Z,5.25
2022-12-27T07:45:00.841Z,4.10
2022-12-27T07:47:29.173Z,4.95
2022-12-27T07:49:57.193Z,5.55
2022-12-27T07:52:27.343Z,5.45
2022-12-27T07:54:55.392Z,5.38
2022-12-27T07:57:23.850Z,4.40
2022-12-27T07:59:51.916Z,5.10
2022-12-27T08:02:21.734Z,5.25
2022-12-27T08:04:49.754Z,6.22
2022-12-27T08:07:20.107Z,6.15
2022-12-27T08:09:49.140Z,6.72
2022-12-27T08:12:17.245Z,5.53
2022-12-27T08:14:46.297Z,5.57
2022-12-27T08:17:20.739Z,5.68
2022-12-27T08:19:51.737Z,5.10
2022-12-27T08:22:20.086Z,5.15
2022-12-27T08:24:49.143Z,5.50
2022-12-27T08:27:22.572Z,7.45
2022-12-27T08:29:51.290Z,5.47
2022-12-27T08:32:19.601Z,6.40
2022-12-27T08:34:47.704Z,4.90
2022-12-27T08:37:17.332Z,5.35
2022-12-27T08:39:45.395Z,5.00
2022-12-27T08:42:14.155Z,3.97
2022-12-27T08:44:42.564Z,4.93
2022-12-27T08:47:10.605Z,4.47
2022-12-27T08:49:38.694Z,3.95
2022-12-27T08:52:07.246Z,4.00
2022-12-27T08:54:36.860Z,3.75
2022-12-27T08:57:04.833Z,4.85
2022-12-27T08:59:32.993Z,5.68
2022-12-27T09:02:01.205Z,4.40
2022-12-27T09:04:29.308Z,3.72
2022-12-27T09:06:57.517Z,4.22
2022-12-27T09:09:25.533Z,4.03
2022-12-27T09:11:57.189Z,4.18
2022-12-27T09:14:26.393Z,4.03
2022-12-27T09:16:54.304Z,4.05
2022-12-27T09:19:22.802Z,3.63
2022-12-27T09:21:50.826Z,4.05
2022-12-27T09:24:18.964Z,3.67
2022-12-27T09:26:47.196Z,3.92
2022-12-27T09:29:16.854Z,3.85
2022-12-27T09:31:44.882Z,4.18
2022-12-27T09:34:13.220Z,4.75
2022-12-27T09:36:43.004Z,4.35
2022-12-27T09:39:14.052Z,5.03
2022-12-27T09:44:51.239Z,4.10
2022-12-27T09:47:25.740Z,4.60
2022-12-27T09:49:58.956Z,4.15
2022-12-27T09:52:32.539Z,4.25
2022-12-27T09:55:05.979Z,5.18
2022-12-27T09:57:38.067Z,4.82
2022-12-27T10:00:15.902Z,4.72
2022-12-27T10:02:44.784Z,4.25
2022-12-27T10:05:21.195Z,5.07
2022-12-27T10:08:11.127Z,5.00
2022-12-27T10:10:44.705Z,5.32
2022-12-27T10:13:28.066Z,4.47
2022-12-27T10:16:08.935Z,4.40
2022-12-27T10:18:46.888Z,4.32
2022-12-27T10:21:21.192Z,4.22
2022-12-27T10:23:55.576Z,4.15
2022-12-27T10:26:25.516Z,4.22
2022-12-27T10:28:58.601Z,4.85
2022-12-27T10:31:28.866Z,3.53
2022-12-27T10:33:58.353Z,3.60
2022-12-27T10:36:28.446Z,3.95
2022-12-27T10:38:56.474Z,3.60
2022-12-27T10:41:33.193Z,3.40
2022-12-27T10:44:01.431Z,3.63
2022-12-27T10:46:33.756Z,3.42
2022-12-27T10:49:21.860Z,4.32
2022-12-27T10:51:51.893Z,3.50
2022-12-27T10:54:24.090Z,3.40
2022-12-27T10:56:52.824Z,3.42
2022-12-27T10:59:22.497Z,3.58
2022-12-27T11:02:15.295Z,4.15
2022-12-27T11:04:57.636Z,3.40
2022-12-27T11:07:30.766Z,3.85
2022-12-27T11:10:07.817Z,3.28
2022-12-27T11:12:36.574Z,3.40
2022-12-27T11:15:07.241Z,3.15
2022-12-27T11:17:41.046Z,3.50
2022-12-27T11:20:22.703Z,2.80
2022-12-27T11:22:54.829Z,3.50
2022-12-27T11:25:23.188Z,3.25
2022-12-27T11:27:54.897Z,3.03
2022-12-27T11:30:27.440Z,3.50
2022-12-27T11:33:02.236Z,3.55
2022-12-27T11:35:30.533Z,3.83
2022-12-27T11:37:58.510Z,3.60
2022-12-27T11:40:30.987Z,3.90
2022-12-27T11:43:06.367Z,3.63
2022-12-27T11:45:39.332Z,3.70
2022-12-27T11:48:21.314Z,3.10
2022-12-27T11:51:04.277Z,3.17
2022-12-27T11:54:12.663Z,3.67
2022-12-27T11:56:44.936Z,3.55
2022-12-27T11:59:37.774Z,4.70
2022-12-27T12:02:42.154Z,3.65
2022-12-27T12:05:51.088Z,3.30
2022-12-27T12:08:42.934Z,4.45
2022-12-27T12:11:31.835Z,4.78
2022-12-27T12:14:36.265Z,4.97
2022-12-27T12:17:28.589Z,4.53
2022-12-27T12:20:23.147Z,5.00
2022-12-27T12:23:06.321Z,3.40
2022-12-27T12:26:16.627Z,3.45
2022-12-27T12:29:31.165Z,2.97
2022-12-27T12:32:26.585Z,4.30
2022-12-27T12:35:32.933Z,3.72
2022-12-27T12:38:17.670Z,3.70
2022-12-27T12:41:23.826Z,3.30
2022-12-27T12:44:45.311Z,3.60
2022-12-27T12:47:28.945Z,4.47
2022-12-27T12:50:21.249Z,5.38
2022-12-27T12:53:18.123Z,6.13
2022-12-27T12:55:59.085Z,2.88
2022-12-27T12:58:46.824Z,2.33
2022-12-27T13:01:33.445Z,7.95
2022-12-27T13:04:34.500Z,3.38
2022-12-27T13:07:27.695Z,7.22
2022-12-27T13:10:46.265Z,4.00
2022-12-27T13:16:03.858Z,3.47
2022-12-27T13:18:42.288Z,2.08
2022-12-27T13:21:23.121Z,1.50
2022-12-27T13:24:07.708Z,1.70
2022-12-27T13:26:45.824Z,1.20
2022-12-27T13:29:45.379Z,1.60
2022-12-27T13:32:23.709Z,1.77
2022-12-27T13:35:06.346Z,1.40
2022-12-27T13:37:46.722Z,1.48
2022-12-27T13:40:56.148Z,1.52
2022-12-27T13:44:08.495Z,1.55
2022-12-27T13:46:49.816Z,1.60
2022-12-27T13:49:46.189Z,1.80
2022-12-27T13:52:37.559Z,1.77
2022-12-27T13:55:35.587Z,1.65
2022-12-27T13:58:45.881Z,1.70
2022-12-27T14:01:42.854Z,1.77
2022-12-27T14:05:05.136Z,1.75
2022-12-27T14:07:47.678Z,1.70
2022-12-27T14:10:26.876Z,2.10
2022-12-27T14:13:00.209Z,2.40
2022-12-27T14:15:59.897Z,2.45
2022-12-27T14:18:51.741Z,1.65
2022-12-27T14:21:41.673Z,3.67
2022-12-27T14:24:29.818Z,5.97
2022-12-27T14:27:53.523Z,3.15
2022-12-27T14:30:41.929Z,3.67
2022-12-27T14:34:00.472Z,4.50
2022-12-27T14:37:00.349Z,2.58
2022-12-27T14:40:10.556Z,2.83
2022-12-27T14:43:26.900Z,2.00
2022-12-27T14:46:32.876Z,2.13
2022-12-27T14:49:37.147Z,2.22
2022-12-27T14:52:34.556Z,2.10
2022-12-27T14:55:31.483Z,1.98
2022-12-27T14:58:16.485Z,2.00
2022-12-27T15:01:05.845Z,2.20
2022-12-27T15:03:51.700Z,2.08
2022-12-27T15:06:33.638Z,2.28
2022-12-27T15:09:11.684Z,2.65
2022-12-27T15:11:56.926Z,3.20
2022-12-27T15:14:46.994Z,2.45
2022-12-27T15:17:26.174Z,2.85
2022-12-27T15:20:17.015Z,2.47
2022-12-27T15:22:57.206Z,3.38
2022-12-27T15:25:36.708Z,3.40
2022-12-27T15:28:11.748Z,3.28
2022-12-27T15:30:52.075Z,3.00
2022-12-27T15:33:31.286Z,3.90
2022-12-27T15:36:04.228Z,3.55
2022-12-27T15:38:53.475Z,3.33
2022-12-27T15:41:37.485Z,3.75
2022-12-27T15:44:31.641Z,4.28
2022-12-27T15:47:39.980Z,4.43
2022-12-27T15:50:27.891Z,4.25
2022-12-27T15:53:15.748Z,4.75
2022-12-27T15:56:20.991Z,4.88
2022-12-27T15:59:21.719Z,6.63
2022-12-27T16:02:18.566Z,7.20
2022-12-27T16:04:49.920Z,7.03
2022-12-27T16:07:47.112Z,8.65
2022-12-27T16:10:48.138Z,8.10
2022-12-27T16:13:41.931Z,4.38
2022-12-27T16:16:28.197Z,6.22
2022-12-27T16:19:22.464Z,7.05
2022-12-27T16:21:51.619Z,7.05
2022-12-27T16:24:22.683Z,7.53
2022-12-27T16:26:57.074Z,8.02
2022-12-27T16:29:29.128Z,9.20
2022-12-27T16:32:17.086Z,9.55
2022-12-27T16:34:51.183Z,8.70
2022-12-27T16:37:28.193Z,8.52
2022-12-27T16:40:17.073Z,9.85
2022-12-27T16:43:30.838Z,12.48
2022-12-27T16:46:19.914Z,10.00
2022-12-27T16:49:06.847Z,11.50
2022-12-27T16:51:50.712Z,16.73
2022-12-27T16:54:31.638Z,19.40
2022-12-27T16:57:32.552Z,17.52
2022-12-27T17:00:03.398Z,13.25
2022-12-27T17:02:42.217Z,12.27
2022-12-27T17:05:36.132Z,12.93
2022-12-27T17:08:18.429Z,11.80
2022-12-27T17:11:52.341Z,11.45
2022-12-27T17:14:25.555Z,11.23
2022-12-27T17:16:58.728Z,12.98
2022-12-27T17:19:32.295Z,13.25
2022-12-27T17:22:04.914Z,13.70
2022-12-27T17:24:34.765Z,17.13
2022-12-27T17:27:12.806Z,13.40
2022-12-27T17:30:02.202Z,16.83
2022-12-27T17:32:54.905Z,15.60
2022-12-27T17:35:29.341Z,16.23
2022-12-27T17:38:12.499Z,18.48
2022-12-27T17:40:51.971Z,16.15
2022-12-27T17:43:53.683Z,16.50
2022-12-27T17:46:34.051Z,15.80
2022-12-27T17:49:02.258Z,15.07
2022-12-27T17:51:31.689Z,15.80
2022-12-27T17:54:17.790Z,14.52
2022-12-27T17:57:07.771Z,20.15
2022-12-27T17:59:35.791Z,22.35
2022-12-27T18:02:12.779Z,22.75
2022-12-27T18:04:48.458Z,26.42
2022-12-27T18:07:22.639Z,27.08
2022-12-27T18:09:53.615Z,24.67
2022-12-27T18:12:26.089Z,23.85
2022-12-27T18:14:59.133Z,20.10
2022-12-27T18:17:32.979Z,18.92
2022-12-27T18:20:01.241Z,19.50
2022-12-27T18:22:29.520Z,19.05
2022-12-27T18:24:57.711Z,19.13
2022-12-27T18:27:27.145Z,18.13
2022-12-27T18:29:55.111Z,17.70
2022-12-27T18:32:25.030Z,19.05
2022-12-27T18:34:57.783Z,17.30
2022-12-27T18:37:26.514Z,22.10
2022-12-27T18:39:57.470Z,24.30
2022-12-27T18:42:30.992Z,19.15
2022-12-27T18:45:02.642Z,25.08
2022-12-27T18:47:32.002Z,20.30
2022-12-27T18:50:02.008Z,21.27
2022-12-27T18:52:33.437Z,16.58
2022-12-27T18:55:16.995Z,19.08
2022-12-27T18:57:47.204Z,15.65
2022-12-27T19:00:21.781Z,22.55
2022-12-27T19:02:50.138Z,23.55
2022-12-27T19:05:29.740Z,22.25
2022-12-27T19:08:11.188Z,22.33
2022-12-27T19:10:46.651Z,21.17
2022-12-27T19:13:22.421Z,18.83
2022-12-27T19:15:51.394Z,18.27
2022-12-27T19:18:23.861Z,16.38
2022-12-27T19:20:56.081Z,15.55
2022-12-27T19:23:34.968Z,14.57
2022-12-27T19:26:07.020Z,13.77
2022-12-27T19:28:37.013Z,16.40
2022-12-27T19:31:22.124Z,14.82
2022-12-27T19:33:53.488Z,13.38
2022-12-27T19:36:26.602Z,14.60
2022-12-27T19:38:57.578Z,13.35
2022-12-27T19:41:26.723Z,13.52
2022-12-27T19:43:56.890Z,12.25
2022-12-27T19:46:30.984Z,11.95
2022-12-27T19:51:47.351Z,14.55
2022-12-27T19:54:18.383Z,13.07
2022-12-27T19:56:47.074Z,13.73
2022-12-27T19:59:18.814Z,14.88
2022-12-27T20:01:47.269Z,13.68
2022-12-27T20:04:17.027Z,13.93
2022-12-27T20:06:48.565Z,14.05
2022-12-27T20:09:19.821Z,14.73
2022-12-27T20:11:49.658Z,13.68
2022-12-27T20:14:19.687Z,14.45
2022-12-27T20:16:48.391Z,14.73
2022-12-27T20:19:18.375Z,13.40
2022-12-27T20:21:47.441Z,14.80
2022-12-27T20:24:15.780Z,18.70
2022-12-27T20:26:44.377Z,19.25
2022-12-27T20:29:13.226Z,17.17
2022-12-27T20:31:46.372Z,15.68
2022-12-27T20:34:14.494Z,15.43
2022-12-27T20:36:42.983Z,14.63
2022-12-27T20:39:11.167Z,13.02
2022-12-27T20:41:39.704Z,12.82
2022-12-27T20:44:07.946Z,13.07
2022-12-27T20:46:36.124Z,12.98
2022-12-27T20:49:07.287Z,12.05
2022-12-27T20:51:35.771Z,12.52
2022-12-27T20:54:04.911Z,14.52
2022-12-27T20:56:35.506Z,12.20
2022-12-27T20:59:08.976Z,10.25
2022-12-27T21:01:38.068Z,9.98
2022-12-27T21:04:09.520Z,9.55
2022-12-27T21:06:37.778Z,9.50
2022-12-27T21:09:05.909Z,8.70
2022-12-27T21:11:34.172Z,6.93
2022-12-27T21:14:04.011Z,7.57
2022-12-27T21:16:34.316Z,7.68
2022-12-27T21:19:05.210Z,7.47
2022-12-27T21:21:37.597Z,7.53
2022-12-27T21:24:07.727Z,9.23
2022-12-27T21:26:37.934Z,8.93
2022-12-27T21:29:08.136Z,9.93
2022-12-27T21:31:36.795Z,9.02
2022-12-27T21:34:07.493Z,8.68
2022-12-27T21:36:38.718Z,7.90
2022-12-27T21:39:07.937Z,7.80
2022-12-27T21:41:37.866Z,9.40
2022-12-27T21:44:06.926Z,9.88
2022-12-27T21:46:37.262Z,10.07
2022-12-27T21:49:08.380Z,8.95
2022-12-27T21:51:39.524Z,9.52
2022-12-27T21:54:10.154Z,8.23
2022-12-27T21:56:39.730Z,7.38
2022-12-27T21:59:11.321Z,7.25
2022-12-27T22:01:52.051Z,7.00
2022-12-27T22:04:21.856Z,7.97
2022-12-27T22:06:51.892Z,8.40
2022-12-27T22:09:20.326Z,7.47
2022-12-27T22:11:49.266Z,7.72
2022-12-27T22:14:23.392Z,7.43
2022-12-27T22:16:53.842Z,7.70
2022-12-27T22:19:22.369Z,7.18
2022-12-27T22:21:52.259Z,6.95
2022-12-27T22:24:20.505Z,8.25
2022-12-27T22:26:50.782Z,8.70
2022-12-27T22:29:19.682Z,8.30
2022-12-27T22:31:47.911Z,8.25
2022-12-27T22:34:16.306Z,8.77
2022-12-27T22:36:45.269Z,8.40
2022-12-27T22:39:16.390Z,10.05
2022-12-27T22:41:46.161Z,8.48
2022-12-27T22:44:20.373Z,9.75
2022-12-27T22:49:40.784Z,10.55
2022-12-27T22:52:11.823Z,10.90
2022-12-27T22:55:04.870Z,10.43
2022-12-27T22:57:32.400Z,9.43
2022-12-27T23:00:00.757Z,8.57
2022-12-27T23:02:29.105Z,8.88
2022-12-27T23:04:57.647Z,8.48
2022-12-27T23:08:05.859Z,8.02
2022-12-27T23:10:16.068Z,7.82
2022-12-27T23:12:44.791Z,7.43
2022-12-27T23:15:13.215Z,6.95
2022-12-27T23:17:42.740Z,7.13
2022-12-27T23:20:12.162Z,7.68
2022-12-27T23:22:40.118Z,7.68
2022-12-27T23:25:08.648Z,7.68
2022-12-27T23:27:38.447Z,7.47
2022-12-27T23:30:07.745Z,9.48
2022-12-27T23:32:35.783Z,8.70
2022-12-27T23:35:04.008Z,8.70
2022-12-27T23:37:32.011Z,9.70
2022-12-27T23:40:00.011Z,9.60
2022-12-27T23:42:28.162Z,8.82
2022-12-27T23:44:57.761Z,9.30
2022-12-27T23:47:25.900Z,9.60
2022-12-27T23:49:54.043Z,9.00
2022-12-27T23:52:22.004Z,8.65
2022-12-27T23:54:50.124Z,8.20
2022-12-27T23:57:22.375Z,8.30
2022-12-27T23:59:51.970Z,7.75
